KMDH/MDH METAR and TAF weather

Enter ICAO airport designator
Station Type Date Time Source
KMDH METAR 2018/12/13 22:02 UTC NOAA

KMDH 132202Z 10004KT 6SM BR SCT009 BKN037 OVC044 10/09 A2997 RMK AO2 T01000094


Station Type Date Time Source
KMDH Decoded METAR 2018/12/13 22:02 UTC NOAA

SOUTHERN ILLINOIS AIRPORT, IL, United States (KMDH) 37-47N 089-15W 130M
Dec 13, 2018 - 05:02 PM EST / 2018.12.13 2202 UTC
Wind: from the E (100 degrees) at 5 MPH (4 KT):0
Visibility: 6 mile(s):0
Sky conditions: overcast
Weather: mist
Temperature: 50.0 F (10.0 C)
Dew Point: 48.9 F (9.4 C)
Relative Humidity: 96%
Pressure (altimeter): 29.97 in. Hg (1014 hPa)
ob: KMDH 132202Z 10004KT 6SM BR SCT009 BKN037 OVC044 10/09 A2997 RMK AO2 T01000094
cycle: 22

Station Type Date Time Source
KMDH TAF UTC NOAA

Error!


Example: see airport list